Time;durP1;ratioP1;P1;durP2;ratioP2;P2;SDS_P1;SDS_P2;PMS_P1;PMS_P2;Temp;Humidity;BMP_temperature;BMP_pressure;BME280_temperature;BME280_humidity;BME280_pressure;Samples;Min_cycle;Max_cycle;Signal;HPM_P1;HPM_P2
2022/07/18 00:02:22;;;;;;;5.80;3.83;;;15.40;99.90;;;;;;5139808;27;20091;-80
2022/07/18 00:04:48;;;;;;;3.63;3.17;;;15.30;99.90;;;;;;5156625;27;20046;-80
2022/07/18 00:07:14;;;;;;;5.30;3.30;;;15.20;99.90;;;;;;5157197;27;20043;-80
2022/07/18 00:09:40;;;;;;;5.38;3.33;;;15.20;99.90;;;;;;5157362;27;20050;-80
2022/07/18 00:12:08;;;;;;;6.32;4.30;;;15.20;99.90;;;;;;5157461;27;20039;-80
2022/07/18 00:14:35;;;;;;;6.30;3.60;;;15.20;99.90;;;;;;5156814;27;20050;-80
2022/07/18 00:17:02;;;;;;;4.30;3.75;;;15.20;99.90;;;;;;5139436;27;20129;-79
2022/07/18 00:19:29;;;;;;;8.15;5.20;;;15.20;99.90;;;;;;5156290;27;20118;-80
2022/07/18 00:21:55;;;;;;;9.43;4.78;;;15.10;99.90;;;;;;5158404;27;20055;-79
2022/07/18 00:24:21;;;;;;;8.55;4.70;;;15.10;99.90;;;;;;5130716;27;20044;-79
2022/07/18 00:26:47;;;;;;;8.52;5.38;;;15.10;99.90;;;;;;5136669;27;20039;-80
2022/07/18 00:29:12;;;;;;;5.80;4.63;;;15.10;99.90;;;;;;5143645;27;20091;-79
2022/07/18 00:31:38;;;;;;;8.32;5.03;;;15.10;99.90;;;;;;5139417;27;20443;-80
2022/07/18 00:34:04;;;;;;;6.53;4.95;;;15.10;99.90;;;;;;5156332;27;20046;-80
2022/07/18 00:36:30;;;;;;;5.45;4.55;;;15.10;99.90;;;;;;5139278;27;20434;-80
2022/07/18 00:38:57;;;;;;;6.50;4.88;;;15.10;99.90;;;;;;5156607;27;20042;-80
2022/07/18 00:41:24;;;;;;;5.15;4.65;;;15.10;99.90;;;;;;5157680;27;20038;-80
2022/07/18 00:43:50;;;;;;;7.18;4.88;;;15.00;99.90;;;;;;5156940;27;20146;-80
2022/07/18 00:46:19;;;;;;;7.28;4.80;;;15.00;99.90;;;;;;5156503;27;20504;-80
2022/07/18 00:48:45;;;;;;;7.18;4.50;;;15.00;99.90;;;;;;5138037;27;20090;-80
2022/07/18 00:51:11;;;;;;;7.43;5.13;;;15.00;99.90;;;;;;5136691;27;20482;-80
2022/07/18 00:53:37;;;;;;;8.55;5.00;;;15.00;99.90;;;;;;5117827;27;20117;-80
2022/07/18 00:56:04;;;;;;;8.05;4.72;;;15.00;99.90;;;;;;5137245;27;20043;-80
2022/07/18 00:58:30;;;;;;;8.48;5.90;;;15.00;99.90;;;;;;5156796;27;20480;-80
2022/07/18 01:03:41;;;;;;;7.78;4.60;;;14.90;99.90;;;;;;5146163;27;20442;-79
2022/07/18 01:06:07;;;;;;;6.43;4.30;;;14.90;99.90;;;;;;5132260;27;20134;-79
2022/07/18 01:08:35;;;;;;;10.52;4.97;;;14.90;99.90;;;;;;5136746;27;20043;-79
2022/07/18 01:11:03;;;;;;;5.90;3.90;;;14.80;99.90;;;;;;5117575;27;20054;-79
2022/07/18 01:13:29;;;;;;;5.75;4.10;;;14.80;99.90;;;;;;5133998;27;20051;-79
2022/07/18 01:15:55;;;;;;;5.55;4.57;;;14.70;99.90;;;;;;5137780;27;20050;-79
2022/07/18 01:18:21;;;;;;;5.53;4.40;;;14.70;99.90;;;;;;5137149;27;20074;-79
2022/07/18 01:20:46;;;;;;;4.82;3.95;;;14.70;99.90;;;;;;5138173;27;20039;-79
2022/07/18 01:23:12;;;;;;;6.35;5.25;;;14.60;99.90;;;;;;5154751;27;20118;-79
2022/07/18 01:25:39;;;;;;;7.75;4.45;;;14.60;99.90;;;;;;5156203;27;20494;-79
2022/07/18 01:28:05;;;;;;;5.10;4.60;;;14.60;99.90;;;;;;5144131;27;20062;-79
2022/07/18 01:30:30;;;;;;;6.95;4.47;;;14.50;99.90;;;;;;5135104;27;20039;-79
2022/07/18 01:32:59;;;;;;;5.55;4.05;;;14.50;99.90;;;;;;5127546;27;20539;-79
2022/07/18 01:35:26;;;;;;;6.35;4.38;;;14.50;99.90;;;;;;5155461;27;20076;-79
2022/07/18 01:37:56;;;;;;;8.30;5.03;;;14.50;99.90;;;;;;5155197;27;20042;-79
2022/07/18 01:40:23;;;;;;;6.80;5.28;;;14.50;99.90;;;;;;5156035;27;20469;-79
2022/07/18 01:42:52;;;;;;;7.25;5.47;;;14.50;99.90;;;;;;5117455;27;20059;-79
2022/07/18 01:45:19;;;;;;;5.78;4.82;;;14.50;99.90;;;;;;5135445;27;20047;-79
2022/07/18 01:47:45;;;;;;;5.90;4.75;;;14.50;99.90;;;;;;5134964;27;20051;-79
2022/07/18 01:50:12;;;;;;;6.07;4.78;;;14.40;99.90;;;;;;5127484;27;20047;-79
2022/07/18 01:52:39;;;;;;;5.85;5.20;;;14.40;99.90;;;;;;5135316;27;20059;-80
2022/07/18 01:55:07;;;;;;;8.95;5.88;;;14.40;99.90;;;;;;5143009;27;20051;-80
2022/07/18 01:57:33;;;;;;;7.07;5.95;;;14.40;99.90;;;;;;5155151;27;20038;-80
2022/07/18 01:59:59;;;;;;;7.13;5.18;;;14.40;99.90;;;;;;5136232;27;20553;-79
2022/07/18 02:02:24;;;;;;;7.78;5.78;;;14.30;99.90;;;;;;5155907;27;20129;-79
2022/07/18 02:05:00;;;;;;;10.23;5.80;;;14.30;99.90;;;;;;5135714;27;20077;-79
2022/07/18 02:07:27;;;;;;;8.40;5.63;;;14.30;99.90;;;;;;5155996;27;20042;-79
2022/07/18 02:09:53;;;;;;;8.38;5.57;;;14.30;99.90;;;;;;5136343;27;20508;-79
2022/07/18 02:12:18;;;;;;;7.20;6.30;;;14.30;99.90;;;;;;5154911;27;20047;-79
2022/07/18 02:14:44;;;;;;;8.27;5.72;;;14.30;99.90;;;;;;5135944;27;20129;-79
2022/07/18 02:17:10;;;;;;;8.18;6.30;;;14.30;99.90;;;;;;5129749;27;20050;-79
2022/07/18 02:19:39;;;;;;;9.88;6.65;;;14.30;99.90;;;;;;5133759;27;20043;-80
2022/07/18 02:22:05;;;;;;;8.23;6.40;;;14.00;99.90;;;;;;5154685;27;20050;-80
2022/07/18 02:24:30;;;;;;;8.48;6.90;;;14.30;99.90;;;;;;5136147;27;20049;-79
2022/07/18 02:26:56;;;;;;;9.23;5.60;;;14.30;99.90;;;;;;5136613;27;20053;-79
2022/07/18 02:29:22;;;;;;;14.30;6.72;;;14.20;99.90;;;;;;5136779;27;20039;-79
2022/07/18 02:31:48;;;;;;;7.60;6.38;;;14.30;99.90;;;;;;5135153;27;20569;-80
2022/07/18 02:34:14;;;;;;;8.77;7.10;;;14.20;99.90;;;;;;5137015;27;20051;-80
2022/07/18 02:36:41;;;;;;;12.50;6.57;;;14.20;99.90;;;;;;5136005;27;20043;-79
2022/07/18 02:39:08;;;;;;;11.38;6.80;;;14.20;99.90;;;;;;5154637;27;20091;-79
2022/07/18 02:41:35;;;;;;;11.50;7.10;;;14.20;99.90;;;;;;5135834;27;20217;-79
2022/07/18 02:44:01;;;;;;;10.30;6.45;;;14.20;99.90;;;;;;5154490;27;20031;-79
2022/07/18 02:46:27;;;;;;;9.85;7.32;;;14.20;99.90;;;;;;5154427;27;20103;-79
2022/07/18 02:48:53;;;;;;;10.10;6.95;;;14.20;99.90;;;;;;5154050;27;20051;-79
2022/07/18 02:51:19;;;;;;;10.75;6.60;;;14.20;99.90;;;;;;5135888;27;20049;-79
2022/07/18 02:53:45;;;;;;;14.18;7.57;;;14.20;99.90;;;;;;5116780;28;20122;-79
2022/07/18 02:56:11;;;;;;;8.88;6.97;;;14.20;99.90;;;;;;5134591;28;20490;-79
2022/07/18 02:58:36;;;;;;;10.80;6.93;;;14.20;99.90;;;;;;5132985;27;20049;-79
2022/07/18 03:01:02;;;;;;;11.57;8.27;;;14.20;99.90;;;;;;5154302;27;20039;-79
2022/07/18 03:03:28;;;;;;;10.70;7.13;;;14.20;99.90;;;;;;5139439;27;20077;-79
2022/07/18 03:05:54;;;;;;;10.13;7.70;;;14.20;99.90;;;;;;5116064;28;20051;-79
2022/07/18 03:08:20;;;;;;;14.88;8.10;;;14.20;99.90;;;;;;5146938;27;20047;-79
2022/07/18 03:10:45;;;;;;;10.32;7.18;;;14.20;99.90;;;;;;5155003;27;20047;-79
2022/07/18 03:13:12;;;;;;;10.18;7.45;;;14.20;99.90;;;;;;5135447;27;20057;-80
2022/07/18 03:15:39;;;;;;;12.20;7.38;;;14.20;99.90;;;;;;5135986;27;20510;-79
2022/07/18 03:18:05;;;;;;;9.90;6.85;;;14.20;99.90;;;;;;5135531;27;20062;-79
2022/07/18 03:20:31;;;;;;;8.90;6.88;;;14.20;99.90;;;;;;5155171;27;20113;-79
2022/07/18 03:22:57;;;;;;;13.38;7.60;;;14.20;99.90;;;;;;5153493;27;20430;-79
2022/07/18 03:25:23;;;;;;;12.98;7.68;;;14.20;99.90;;;;;;5136402;27;20046;-79
2022/07/18 03:27:48;;;;;;;12.98;8.15;;;14.20;99.90;;;;;;5153260;27;20042;-79
2022/07/18 03:30:14;;;;;;;16.23;8.15;;;14.20;99.90;;;;;;5154789;27;20058;-79
2022/07/18 03:32:40;;;;;;;9.13;7.88;;;14.20;99.90;;;;;;5154205;27;20027;-79
2022/07/18 03:35:09;;;;;;;11.93;7.53;;;14.30;99.90;;;;;;5118385;27;20487;-79
2022/07/18 03:37:35;;;;;;;15.43;7.80;;;14.30;99.90;;;;;;5154053;27;20035;-79
2022/07/18 03:40:01;;;;;;;10.13;6.93;;;14.30;99.90;;;;;;5136879;27;20054;-79
2022/07/18 03:42:26;;;;;;;10.25;7.65;;;14.20;99.90;;;;;;5138346;27;20095;-79
2022/07/18 03:44:52;;;;;;;9.85;7.00;;;14.30;99.90;;;;;;5158415;27;20046;-79
2022/07/18 03:47:18;;;;;;;10.43;7.90;;;14.30;99.90;;;;;;5157732;27;20039;-79
2022/07/18 03:49:43;;;;;;;10.32;7.68;;;14.30;99.90;;;;;;5122053;27;20478;-79
2022/07/18 03:52:09;;;;;;;13.10;8.35;;;14.30;99.90;;;;;;5157486;27;20054;-79
2022/07/18 03:54:35;;;;;;;11.20;7.13;;;14.20;99.90;;;;;;5158356;27;20070;-79
2022/07/18 03:57:01;;;;;;;9.45;7.22;;;14.20;99.90;;;;;;5138155;27;20050;-79
2022/07/18 03:59:26;;;;;;;11.23;7.68;;;14.20;99.90;;;;;;5158143;27;20039;-79
2022/07/18 04:01:52;;;;;;;9.52;7.32;;;14.20;99.90;;;;;;5157502;27;20046;-79
2022/07/18 04:04:18;;;;;;;9.02;7.32;;;14.20;99.90;;;;;;5138777;27;20042;-79
2022/07/18 04:06:43;;;;;;;11.45;7.57;;;14.20;99.90;;;;;;5151748;27;20031;-79
2022/07/18 04:09:09;;;;;;;11.38;6.55;;;14.20;99.90;;;;;;5137424;27;20400;-79
2022/07/18 04:11:35;;;;;;;11.65;7.38;;;14.20;99.90;;;;;;5136727;27;20046;-78
2022/07/18 04:14:01;;;;;;;9.43;7.78;;;14.20;99.90;;;;;;5118564;27;20055;-79
2022/07/18 04:16:26;;;;;;;13.20;8.55;;;14.20;99.90;;;;;;5120602;27;20047;-79
2022/07/18 04:18:52;;;;;;;13.35;8.43;;;14.20;99.90;;;;;;5117900;27;20053;-78
2022/07/18 04:21:18;;;;;;;16.30;8.32;;;14.20;99.90;;;;;;5131050;27;20042;-79
2022/07/18 04:23:47;;;;;;;13.82;8.90;;;14.20;99.90;;;;;;5139257;27;20039;-78
2022/07/18 04:26:12;;;;;;;12.25;8.68;;;14.30;99.90;;;;;;5126666;27;20046;-78
2022/07/18 04:28:38;;;;;;;18.10;8.85;;;14.30;99.90;;;;;;5119996;27;20389;-78
2022/07/18 04:31:04;;;;;;;10.48;7.82;;;14.30;99.90;;;;;;5157077;27;20142;-79
2022/07/18 04:33:30;;;;;;;11.55;9.05;;;14.40;99.90;;;;;;5157682;27;20126;-79
2022/07/18 04:35:56;;;;;;;9.88;8.45;;;14.50;99.90;;;;;;5121800;27;20050;-79
2022/07/18 04:38:21;;;;;;;12.10;9.05;;;14.50;99.90;;;;;;5155714;27;20478;-79
2022/07/18 04:40:47;;;;;;;9.23;7.63;;;14.50;99.90;;;;;;5139040;27;20537;-79
2022/07/18 04:43:13;;;;;;;12.32;8.10;;;14.50;99.90;;;;;;5138299;27;20103;-79
2022/07/18 04:45:38;;;;;;;11.27;7.90;;;14.60;99.90;;;;;;5157037;27;20473;-79
2022/07/18 04:48:05;;;;;;;14.48;7.18;;;14.60;99.90;;;;;;5148632;27;20045;-79
2022/07/18 04:50:32;;;;;;;11.00;7.72;;;14.60;99.90;;;;;;5136541;27;20100;-79
2022/07/18 04:52:58;;;;;;;11.52;7.38;;;14.70;99.90;;;;;;5141609;27;20078;-79
2022/07/18 04:55:25;;;;;;;10.95;7.93;;;14.70;99.90;;;;;;5157452;27;20046;-79
2022/07/18 04:57:52;;;;;;;14.63;8.32;;;14.70;99.90;;;;;;5135221;27;20042;-79
2022/07/18 05:00:20;;;;;;;10.55;6.85;;;14.80;99.90;;;;;;5117404;27;20511;-79
2022/07/18 05:02:49;;;;;;;9.02;7.20;;;14.80;99.90;;;;;;5136735;27;20038;-79
2022/07/18 05:05:16;;;;;;;11.05;7.38;;;14.80;99.90;;;;;;5117984;27;20046;-79
2022/07/18 05:07:43;;;;;;;12.07;7.45;;;14.90;99.90;;;;;;5118980;27;20039;-79
2022/07/18 05:10:10;;;;;;;9.65;7.03;;;14.90;99.90;;;;;;5124978;27;20047;-79
2022/07/18 05:12:42;;;;;;;11.98;6.75;;;14.90;99.90;;;;;;5155646;27;20099;-79
2022/07/18 05:15:11;;;;;;;8.73;7.00;;;15.00;99.90;;;;;;5119580;27;20054;-79
2022/07/18 05:17:37;;;;;;;13.35;7.85;;;15.00;99.90;;;;;;5136972;27;20108;-80
2022/07/18 05:20:04;;;;;;;12.23;7.63;;;15.10;99.90;;;;;;5137153;27;20049;-79
2022/07/18 05:22:33;;;;;;;10.40;6.93;;;15.10;99.90;;;;;;5155538;27;20043;-79
2022/07/18 05:25:00;;;;;;;10.20;6.13;;;15.20;99.90;;;;;;5122850;27;20047;-78
2022/07/18 05:27:26;;;;;;;10.80;6.60;;;15.20;99.90;;;;;;5135149;27;20054;-79
2022/07/18 05:29:52;;;;;;;12.30;6.88;;;15.30;99.90;;;;;;5128838;27;20059;-79
2022/07/18 05:32:18;;;;;;;11.40;6.38;;;15.30;99.90;;;;;;5156380;27;20053;-79
2022/07/18 05:34:44;;;;;;;12.90;7.15;;;15.40;99.90;;;;;;5125287;27;20137;-81
2022/07/18 05:37:10;;;;;;;10.70;6.70;;;15.40;99.90;;;;;;5117431;27;20115;-81
2022/07/18 05:39:36;;;;;;;10.38;6.28;;;15.50;99.90;;;;;;5117377;27;20043;-81
2022/07/18 05:42:03;;;;;;;9.95;5.90;;;15.50;99.90;;;;;;5116460;27;20039;-81
2022/07/18 05:44:29;;;;;;;12.05;7.05;;;15.60;99.90;;;;;;5130543;27;20053;-81
2022/07/18 05:46:55;;;;;;;9.18;6.35;;;15.60;99.90;;;;;;5155742;27;20066;-81
2022/07/18 05:49:21;;;;;;;10.50;5.88;;;15.70;99.90;;;;;;5154526;27;20477;-81
2022/07/18 05:51:47;;;;;;;12.45;6.47;;;15.70;99.90;;;;;;5137902;27;20055;-81
2022/07/18 05:54:18;;;;;;;9.13;6.20;;;15.80;99.90;;;;;;5128834;27;20132;-81
2022/07/18 05:56:46;;;;;;;8.13;5.70;;;15.80;99.90;;;;;;5134902;27;20051;-81
2022/07/18 05:59:11;;;;;;;8.13;5.40;;;15.90;99.90;;;;;;5130466;27;20038;-81
2022/07/18 06:01:37;;;;;;;8.82;5.78;;;16.00;99.90;;;;;;5137902;27;20130;-80
2022/07/18 06:04:03;;;;;;;9.25;5.88;;;16.00;99.90;;;;;;5122485;27;20071;-80
2022/07/18 06:06:30;;;;;;;10.30;6.80;;;16.10;99.90;;;;;;5135321;27;20035;-80
2022/07/18 06:08:55;;;;;;;8.77;4.80;;;16.20;99.90;;;;;;5139699;27;20039;-81
2022/07/18 06:11:25;;;;;;;6.18;4.82;;;16.20;99.90;;;;;;5134595;27;20539;-81
2022/07/18 06:13:51;;;;;;;7.55;4.65;;;16.30;99.90;;;;;;5139882;27;20035;-81
2022/07/18 06:16:16;;;;;;;8.90;4.90;;;16.40;99.90;;;;;;5116893;27;20478;-81
2022/07/18 06:18:42;;;;;;;13.48;5.05;;;16.50;99.90;;;;;;5141885;27;20119;-81
2022/07/18 06:21:08;;;;;;;5.85;4.43;;;16.60;99.90;;;;;;5148935;27;20130;-82
2022/07/18 06:23:35;;;;;;;7.90;4.68;;;16.60;99.90;;;;;;5135633;27;20050;-82
2022/07/18 06:26:02;;;;;;;10.73;5.15;;;16.70;99.90;;;;;;5125474;27;20543;-82
2022/07/18 06:28:31;;;;;;;10.80;4.53;;;16.90;99.90;;;;;;5130406;27;20092;-82
2022/07/18 06:30:57;;;;;;;10.18;4.55;;;17.00;99.90;;;;;;5150188;27;20086;-82
2022/07/18 06:33:22;;;;;;;4.90;3.60;;;17.20;99.90;;;;;;5149814;27;20042;-82
2022/07/18 06:35:49;;;;;;;5.47;3.85;;;17.30;99.90;;;;;;5153368;27;20047;-82
2022/07/18 06:38:18;;;;;;;9.23;3.67;;;17.50;99.90;;;;;;5129504;27;20385;-82
2022/07/18 06:40:44;;;;;;;4.63;3.22;;;17.60;99.90;;;;;;5153965;27;20418;-82
2022/07/18 06:43:10;;;;;;;5.05;3.50;;;17.80;99.90;;;;;;5155317;27;20038;-83
2022/07/18 06:45:36;;;;;;;6.55;3.40;;;17.90;99.90;;;;;;5141796;27;20046;-82
2022/07/18 06:48:02;;;;;;;7.30;3.00;;;18.00;99.90;;;;;;5133929;28;20112;-82
2022/07/18 06:50:28;;;;;;;8.20;3.20;;;18.10;99.90;;;;;;5145964;27;20049;-82
2022/07/18 06:52:54;;;;;;;6.30;2.97;;;18.10;99.90;;;;;;5134110;28;20039;-82
2022/07/18 06:55:20;;;;;;;6.25;3.47;;;18.20;99.90;;;;;;5116569;28;20054;-82
2022/07/18 06:57:47;;;;;;;6.38;3.00;;;18.40;99.90;;;;;;5121296;27;20081;-83
2022/07/18 07:00:14;;;;;;;4.72;2.97;;;18.60;99.90;;;;;;5154527;27;20043;-83
2022/07/18 07:02:45;;;;;;;5.93;2.63;;;18.70;99.90;;;;;;5155419;27;20035;-83
2022/07/18 07:05:11;;;;;;;5.78;2.78;;;18.90;99.90;;;;;;5137422;27;20070;-82
2022/07/18 07:07:37;;;;;;;4.97;2.75;;;19.00;99.90;;;;;;5153187;27;20504;-82
2022/07/18 07:10:03;;;;;;;3.95;2.25;;;19.20;99.90;;;;;;5138639;27;20079;-83
2022/07/18 07:12:29;;;;;;;8.45;2.60;;;19.40;99.90;;;;;;5135624;27;20046;-83
2022/07/18 07:14:55;;;;;;;8.13;2.50;;;19.50;99.90;;;;;;5134535;27;20137;-83
2022/07/18 07:17:21;;;;;;;8.57;2.38;;;19.70;99.90;;;;;;5120404;27;20094;-83
2022/07/18 07:19:47;;;;;;;5.75;2.20;;;19.80;99.90;;;;;;5139076;27;20043;-82
2022/07/18 07:22:12;;;;;;;5.75;2.50;;;19.90;99.90;;;;;;5120153;27;20075;-82
2022/07/18 07:24:40;;;;;;;8.05;2.67;;;20.00;99.90;;;;;;5140535;27;20070;-83
2022/07/18 07:27:05;;;;;;;9.45;2.47;;;20.10;99.90;;;;;;5119410;27;20051;-82
2022/07/18 07:29:31;;;;;;;5.85;2.28;;;20.30;99.90;;;;;;5121198;27;20043;-82
2022/07/18 07:31:57;;;;;;;8.82;2.75;;;20.40;99.90;;;;;;5119920;27;20379;-82
2022/07/18 07:34:23;;;;;;;6.43;2.30;;;20.50;99.90;;;;;;5138831;27;20035;-82
2022/07/18 07:36:49;;;;;;;6.10;2.22;;;20.70;99.90;;;;;;5121711;27;20047;-83
2022/07/18 07:39:14;;;;;;;5.57;2.47;;;20.70;99.90;;;;;;5138603;27;20456;-82
2022/07/18 07:41:40;;;;;;;3.58;2.05;;;20.80;99.90;;;;;;5138019;27;20043;-83
2022/07/18 07:44:06;;;;;;;6.05;2.00;;;20.80;99.90;;;;;;5124652;27;20051;-82
2022/07/18 07:46:32;;;;;;;8.35;2.45;;;20.80;99.90;;;;;;5158004;27;20477;-82
2022/07/18 07:48:57;;;;;;;8.48;2.80;;;20.80;99.90;;;;;;5149536;27;20070;-82
2022/07/18 07:51:23;;;;;;;5.30;2.22;;;20.80;99.90;;;;;;5140177;27;20051;-82
2022/07/18 07:53:49;;;;;;;6.47;2.70;;;20.80;99.90;;;;;;5148908;27;20535;-82
2022/07/18 07:56:18;;;;;;;9.18;3.00;;;20.90;99.90;;;;;;5158919;27;20066;-81
2022/07/18 07:58:45;;;;;;;5.85;2.80;;;21.00;99.90;;;;;;5139794;27;20091;-82
2022/07/18 08:01:11;;;;;;;8.60;2.63;;;21.10;99.90;;;;;;5158615;27;20057;-81
2022/07/18 08:03:38;;;;;;;7.05;2.25;;;21.20;99.90;;;;;;5156583;27;20039;-82
2022/07/18 08:06:04;;;;;;;5.90;2.13;;;21.30;99.90;;;;;;5142511;27;20046;-82
2022/07/18 08:08:30;;;;;;;9.90;2.42;;;21.30;99.90;;;;;;5157977;27;20039;-82
2022/07/18 08:10:56;;;;;;;5.05;2.17;;;21.40;99.90;;;;;;5139482;27;20046;-82
2022/07/18 08:13:24;;;;;;;8.05;2.10;;;21.50;99.90;;;;;;5125004;27;20113;-82
2022/07/18 08:15:50;;;;;;;8.68;1.90;;;21.60;99.90;;;;;;5113893;27;20481;-82
2022/07/18 08:18:15;;;;;;;3.95;1.77;;;21.70;99.90;;;;;;5139265;27;20046;-83
2022/07/18 08:20:41;;;;;;;5.40;1.75;;;21.80;99.90;;;;;;5164509;27;20438;-83
2022/07/18 08:23:10;;;;;;;8.70;1.75;;;21.80;99.90;;;;;;5154940;27;20042;-83
2022/07/18 08:25:38;;;;;;;8.23;1.70;;;21.80;99.90;;;;;;5148140;27;20054;-83
2022/07/18 08:28:05;;;;;;;8.52;1.98;;;21.80;99.90;;;;;;5143715;27;20586;-83
2022/07/18 08:30:32;;;;;;;4.03;1.88;;;21.90;99.90;;;;;;5123674;27;20082;-83
2022/07/18 08:33:00;;;;;;;7.13;1.90;;;22.00;99.90;;;;;;5159297;27;20031;-82
2022/07/18 08:35:27;;;;;;;7.15;2.10;;;22.10;99.90;;;;;;5139558;27;20037;-83
2022/07/18 08:37:53;;;;;;;7.05;2.70;;;22.20;99.90;;;;;;5159874;27;20046;-82
2022/07/18 08:40:19;;;;;;;6.15;1.70;;;22.30;99.90;;;;;;5144059;27;20050;-83
2022/07/18 08:42:46;;;;;;;5.18;1.90;;;22.40;99.90;;;;;;5153572;27;20087;-83
2022/07/18 08:45:11;;;;;;;7.00;1.88;;;22.50;99.90;;;;;;5140953;27;20050;-83
2022/07/18 08:47:37;;;;;;;3.90;1.67;;;22.60;99.90;;;;;;5125259;27;20118;-82
2022/07/18 08:50:04;;;;;;;7.05;1.58;;;22.70;99.90;;;;;;5139836;27;20092;-83
2022/07/18 08:52:30;;;;;;;9.57;1.98;;;22.70;99.90;;;;;;5138257;27;20047;-83
2022/07/18 08:54:56;;;;;;;9.48;2.40;;;22.80;99.90;;;;;;5142395;27;20106;-83
2022/07/18 08:57:23;;;;;;;6.68;1.48;;;22.80;99.90;;;;;;5161104;27;20118;-83
2022/07/18 08:59:49;;;;;;;3.95;1.40;;;22.90;99.90;;;;;;5141684;27;20172;-84
2022/07/18 09:02:15;;;;;;;7.35;1.52;;;22.90;99.90;;;;;;5150124;27;20051;-83
2022/07/18 09:04:45;;;;;;;5.38;1.60;;;22.90;99.90;;;;;;5138935;27;20110;-83
2022/07/18 09:07:34;;;;;;;2.53;1.48;;;22.90;99.90;;;;;;5132224;27;20478;-83
2022/07/18 09:10:02;;;;;;;5.63;1.60;;;23.00;99.90;;;;;;5122026;27;20064;-83
2022/07/18 09:12:31;;;;;;;4.28;1.40;;;23.10;99.90;;;;;;5119726;27;20478;-83
2022/07/18 09:14:57;;;;;;;6.38;1.70;;;23.30;99.90;;;;;;5138283;27;20059;-83
2022/07/18 09:17:28;;;;;;;7.43;1.75;;;23.30;99.90;;;;;;5136370;27;20046;-84
2022/07/18 09:20:14;;;;;;;4.07;1.73;;;23.40;99.90;;;;;;5137882;27;20057;-82
2022/07/18 09:22:46;;;;;;;4.00;1.35;;;23.50;99.90;;;;;;5138226;27;20489;-82
2022/07/18 09:25:14;;;;;;;6.22;1.70;;;23.50;99.90;;;;;;5138611;27;20113;-82
2022/07/18 09:27:42;;;;;;;6.70;1.45;;;23.60;99.90;;;;;;5154960;27;20030;-83
2022/07/18 09:30:24;;;;;;;6.50;1.65;;;23.70;99.60;;;;;;5139399;27;20074;-83
2022/07/18 09:33:02;;;;;;;4.22;1.48;;;23.70;98.90;;;;;;5138032;27;20046;-82
2022/07/18 09:35:29;;;;;;;6.05;1.40;;;23.80;99.00;;;;;;5138998;27;20389;-82
2022/07/18 09:37:59;;;;;;;8.80;1.67;;;23.80;98.80;;;;;;5124084;27;20126;-82
2022/07/18 09:40:31;;;;;;;4.90;1.33;;;23.90;98.90;;;;;;5137537;27;20054;-82
2022/07/18 09:42:59;;;;;;;6.22;1.83;;;23.90;98.50;;;;;;5118660;27;20143;-82
2022/07/18 09:45:35;;;;;;;8.20;1.70;;;24.00;97.10;;;;;;5136899;27;20039;-82
2022/07/18 09:48:05;;;;;;;3.33;1.88;;;24.10;97.80;;;;;;5100717;27;20047;-83
2022/07/18 09:51:10;;;;;;;4.32;1.73;;;24.10;97.80;;;;;;5118153;27;20047;-82
2022/07/18 09:53:39;;;;;;;6.00;1.80;;;24.20;98.60;;;;;;5052867;28;20056;-83
2022/07/18 09:56:11;;;;;;;14.77;2.00;;;24.30;97.50;;;;;;5107540;27;20050;-83
2022/07/18 09:58:49;;;;;;;9.15;2.00;;;24.40;95.90;;;;;;5158951;27;20485;-83
2022/07/18 10:01:15;;;;;;;8.85;2.20;;;24.50;95.20;;;;;;5139111;27;20378;-82
2022/07/18 10:03:41;;;;;;;5.65;2.58;;;24.50;94.40;;;;;;5138464;27;20034;-83
2022/07/18 10:06:07;;;;;;;7.28;1.92;;;24.50;94.70;;;;;;5155246;27;20043;-83
2022/07/18 10:08:34;;;;;;;6.65;2.08;;;24.60;94.90;;;;;;5136470;27;20051;-82
2022/07/18 10:11:02;;;;;;;7.00;1.73;;;24.60;95.90;;;;;;5142996;27;20456;-82
2022/07/18 10:13:40;;;;;;;5.70;2.10;;;24.70;95.30;;;;;;5159125;27;20679;-82
2022/07/18 10:16:06;;;;;;;4.70;1.83;;;24.70;94.00;;;;;;5125829;27;20055;-82
2022/07/18 10:18:36;;;;;;;5.78;1.77;;;24.80;94.40;;;;;;5118672;27;20070;-82
2022/07/18 10:21:02;;;;;;;3.60;1.70;;;24.90;95.40;;;;;;5136016;27;20043;-83
2022/07/18 10:23:27;;;;;;;4.78;1.75;;;25.00;94.30;;;;;;5155509;27;20492;-82
2022/07/18 10:26:05;;;;;;;4.68;2.00;;;25.10;93.40;;;;;;5141761;27;20047;-83
2022/07/18 10:28:32;;;;;;;4.97;2.00;;;25.10;93.00;;;;;;5137432;27;20043;-82
2022/07/18 10:31:16;;;;;;;5.05;2.15;;;25.20;92.80;;;;;;5135464;27;20179;-83
2022/07/18 10:33:47;;;;;;;4.22;2.00;;;25.40;94.20;;;;;;5136136;27;20121;-82
2022/07/18 10:36:15;;;;;;;6.97;2.15;;;25.50;92.30;;;;;;5146123;27;20038;-83
2022/07/18 10:39:08;;;;;;;15.52;2.90;;;25.60;92.80;;;;;;5120584;27;20054;-83
2022/07/18 10:41:43;;;;;;;6.50;1.98;;;25.70;93.40;;;;;;5140864;27;20549;-83
2022/07/18 10:44:30;;;;;;;7.78;2.13;;;25.70;92.40;;;;;;5136975;27;20078;-82
2022/07/18 10:47:09;;;;;;;4.18;2.08;;;25.70;92.00;;;;;;5116693;28;20137;-81
2022/07/18 10:49:52;;;;;;;5.45;2.35;;;25.70;92.20;;;;;;5117541;27;20086;-82
2022/07/18 10:52:33;;;;;;;5.47;2.53;;;25.70;91.70;;;;;;5137792;27;20043;-82
2022/07/18 10:55:17;;;;;;;2.53;1.88;;;25.70;92.70;;;;;;5142848;27;20302;-83
2022/07/18 10:58:06;;;;;;;7.28;2.20;;;25.70;92.20;;;;;;5137704;27;20073;-83
2022/07/18 11:00:39;;;;;;;5.80;2.05;;;25.80;91.70;;;;;;5146884;27;20498;-83
2022/07/18 11:03:09;;;;;;;5.38;2.20;;;25.80;91.50;;;;;;5159610;27;20038;-83
2022/07/18 11:05:36;;;;;;;7.15;1.98;;;25.90;88.00;;;;;;5154493;27;20034;-83
2022/07/18 11:08:02;;;;;;;4.43;1.73;;;26.00;88.00;;;;;;5143321;27;20043;-83
2022/07/18 11:10:51;;;;;;;5.65;2.03;;;26.10;90.30;;;;;;5154905;27;20038;-83
2022/07/18 11:13:38;;;;;;;6.53;2.63;;;26.20;90.00;;;;;;5086633;27;20058;-83
2022/07/18 11:16:14;;;;;;;4.60;2.05;;;26.20;90.40;;;;;;5125748;27;20046;-83
2022/07/18 11:18:43;;;;;;;6.22;2.60;;;26.30;91.20;;;;;;5140067;27;20042;-83
2022/07/18 11:21:34;;;;;;;4.47;1.85;;;26.40;90.90;;;;;;5122898;27;20078;-84
2022/07/18 11:24:09;;;;;;;8.27;2.25;;;26.40;89.90;;;;;;5137482;27;20073;-83
2022/07/18 11:26:37;;;;;;;5.38;2.20;;;26.40;89.90;;;;;;5119385;27;20051;-83
2022/07/18 11:29:07;;;;;;;2.70;1.90;;;26.50;90.40;;;;;;5124013;27;20043;-82
2022/07/18 11:31:45;;;;;;;6.20;2.00;;;26.40;90.40;;;;;;5158752;27;20034;-81
2022/07/18 11:34:11;;;;;;;4.32;2.15;;;26.40;89.70;;;;;;5124330;27;20473;-82
2022/07/18 11:36:40;;;;;;;5.45;2.17;;;26.30;90.80;;;;;;5149633;27;20088;-81
2022/07/18 11:39:06;;;;;;;4.30;2.03;;;26.30;90.40;;;;;;5141858;27;20385;-81
2022/07/18 11:41:32;;;;;;;5.07;2.08;;;26.20;89.40;;;;;;5140822;27;20076;-81
2022/07/18 11:43:58;;;;;;;3.38;1.85;;;26.10;88.70;;;;;;5132705;27;20047;-82
2022/07/18 11:46:26;;;;;;;5.68;2.10;;;26.10;90.40;;;;;;5158022;27;20046;-82
2022/07/18 11:49:03;;;;;;;6.55;2.25;;;26.10;91.30;;;;;;5146613;27;20047;-81
2022/07/18 11:51:41;;;;;;;5.95;2.42;;;26.10;92.40;;;;;;5138768;27;20035;-82
2022/07/18 11:54:08;;;;;;;7.18;2.83;;;26.10;92.10;;;;;;5138085;27;20114;-82
2022/07/18 11:56:48;;;;;;;7.90;2.80;;;26.20;91.90;;;;;;5146572;27;20057;-81
2022/07/18 11:59:15;;;;;;;7.70;2.50;;;26.30;92.70;;;;;;5158823;27;20039;-82
2022/07/18 12:01:44;;;;;;;2.35;2.00;;;26.30;91.10;;;;;;5155028;27;20049;-82
2022/07/18 12:04:18;;;;;;;7.25;2.28;;;26.30;90.90;;;;;;5139833;27;20039;-81
2022/07/18 12:06:43;;;;;;;;;;;26.30;91.90;;;;;;5139890;27;20131;-81
2022/07/18 12:09:09;;;;;;;7.95;2.40;;;26.20;91.90;;;;;;5144580;27;20026;-82
2022/07/18 12:11:39;;;;;;;5.40;2.50;;;26.20;91.70;;;;;;5137536;27;20070;-81
2022/07/18 12:14:07;;;;;;;4.15;2.40;;;26.20;91.00;;;;;;5120033;27;20059;-81
2022/07/18 12:16:39;;;;;;;5.28;2.30;;;26.10;91.10;;;;;;5156009;27;20091;-81
2022/07/18 12:19:12;;;;;;;8.45;2.65;;;26.20;91.20;;;;;;5140448;27;20408;-81
2022/07/18 12:21:41;;;;;;;5.68;2.90;;;26.30;91.70;;;;;;5147503;27;20043;-81
2022/07/18 12:24:36;;;;;;;4.30;2.40;;;26.40;89.00;;;;;;5120072;27;20400;-81
2022/07/18 12:27:21;;;;;;;6.03;2.47;;;26.50;90.60;;;;;;5137092;27;20100;-81
2022/07/18 12:30:16;;;;;;;5.80;2.88;;;26.60;89.50;;;;;;5125822;27;20098;-82
2022/07/18 12:32:54;;;;;;;6.05;2.50;;;26.70;88.80;;;;;;5157900;27;20070;-81
2022/07/18 12:35:23;;;;;;;4.93;2.92;;;26.70;85.40;;;;;;5128127;27;20054;-82
2022/07/18 12:37:53;;;;;;;9.32;2.40;;;26.80;84.00;;;;;;5136956;27;20051;-81
2022/07/18 12:40:19;;;;;;;5.43;3.03;;;26.80;82.30;;;;;;5137791;27;20092;-81
2022/07/18 12:42:45;;;;;;;4.95;3.17;;;26.80;77.80;;;;;;5137645;27;20095;-81
2022/07/18 12:45:12;;;;;;;3.55;2.50;;;26.90;77.40;;;;;;5147502;27;20478;-81
2022/07/18 12:47:39;;;;;;;6.28;2.88;;;26.90;77.90;;;;;;5128399;27;20047;-81
2022/07/18 12:50:06;;;;;;;8.02;3.15;;;26.90;78.80;;;;;;5136375;27;20062;-81
2022/07/18 12:52:32;;;;;;;9.55;3.28;;;26.90;77.30;;;;;;5135990;27;20047;-81
2022/07/18 12:54:59;;;;;;;5.28;3.00;;;26.90;77.70;;;;;;5118221;27;20123;-81